Stillwater, Oklahoma
Current Conditions -  °F | °C
As of 1:53 PM on Sunday 23 Nov 2014 (Local Time) from KSWO Reporting Station
Overcast Overcast  
Wind Chill: 60°   Ceiling: 4100
Heat Index: 60°   Visibility: 10mi
Dew Point: 46°   Wind: 5mph
Humidity: 60%   Direction: 290°WNW
Pressure: 29.33"   Gusts: NA
Location:  36.12°N, 97.06°W
Report Text: KSWO 231953Z 29004KT 10SM FEW030 OVC041 16/08 A2933 RMK AO2 SLP924 T01560078
Loading
Personal Weather Stations






























Interactive Weather Map New forecast layout! Learn more

10-Day Weather Forecast

Advertisements
Track Severe Weather on mobile